createdAt,value
2019-04-19T00:00:56.036Z,51.75
2019-04-19T00:01:57.174Z,51.78
2019-04-19T00:02:51.944Z,51.75
2019-04-19T00:03:51.037Z,51.68
2019-04-19T00:04:53.625Z,51.78
2019-04-19T00:05:51.208Z,51.85
2019-04-19T00:06:58.178Z,51.75
2019-04-19T00:08:00.091Z,51.65
2019-04-19T00:09:12.188Z,51.65
2019-04-19T00:09:57.368Z,51.46
2019-04-19T00:10:55.529Z,51.75
2019-04-19T00:12:04.476Z,51.75
2019-04-19T00:12:55.965Z,51.75
2019-04-19T00:13:49.799Z,51.56
2019-04-19T00:14:50.648Z,51.75
2019-04-19T00:15:49.828Z,51.65
2019-04-19T00:16:50.949Z,51.65
2019-04-19T00:17:52.544Z,51.85
2019-04-19T00:19:14.322Z,51.56
2019-04-19T00:20:16.787Z,51.65
2019-04-19T00:21:06.858Z,51.65
2019-04-19T00:22:24.042Z,51.65
2019-04-19T00:23:02.059Z,51.75
2019-04-19T00:23:52.137Z,51.75
2019-04-19T00:24:50.084Z,51.65
2019-04-19T00:25:49.733Z,51.75
2019-04-19T00:26:50.749Z,51.95
2019-04-19T00:27:54.079Z,51.65
2019-04-19T00:28:54.924Z,51.65
2019-04-19T00:29:57.436Z,51.75
2019-04-19T00:30:59.216Z,51.95
2019-04-19T00:32:08.061Z,51.75
2019-04-19T00:33:04.647Z,51.85
2019-04-19T00:33:53.891Z,51.56
2019-04-19T00:34:50.497Z,51.65
2019-04-19T00:35:49.729Z,51.65
2019-04-19T00:36:50.860Z,51.65
2019-04-19T00:37:52.341Z,51.46
2019-04-19T00:39:06.003Z,51.46
2019-04-19T00:40:07.597Z,51.85
2019-04-19T00:41:06.946Z,51.85
2019-04-19T00:42:10.601Z,51.65
2019-04-19T00:43:03.698Z,51.56
2019-04-19T00:44:05.556Z,51.46
2019-04-19T00:45:09.139Z,52.23
2019-04-19T00:46:09.219Z,52.50
2019-04-19T00:47:07.987Z,52.30
2019-04-19T00:48:04.158Z,52.59
2019-04-19T00:49:02.900Z,52.40
2019-04-19T00:50:02.882Z,52.20
2019-04-19T00:51:07.544Z,52.40
2019-04-19T00:52:05.560Z,52.20
2019-04-19T00:53:04.002Z,51.92
2019-04-19T00:54:00.123Z,52.01
2019-04-19T00:55:02.166Z,52.11
2019-04-19T00:56:00.757Z,52.11
2019-04-19T00:56:57.045Z,52.30
2019-04-19T00:57:54.795Z,51.92
2019-04-19T00:58:56.591Z,52.01
2019-04-19T00:59:51.906Z,52.11
2019-04-19T01:00:51.095Z,52.50
2019-04-19T01:01:56.753Z,52.50
2019-04-19T01:02:54.475Z,52.30
2019-04-19T01:03:51.952Z,52.69
2019-04-19T01:05:00.461Z,52.40
2019-04-19T01:05:58.077Z,52.87
2019-04-19T01:06:54.862Z,53.07
2019-04-19T01:07:49.576Z,53.16
2019-04-19T01:09:00.310Z,53.07
2019-04-19T01:10:06.048Z,53.74
2019-04-19T01:11:10.800Z,53.45
2019-04-19T01:12:03.118Z,54.03
2019-04-19T01:13:05.467Z,53.64
2019-04-19T01:14:00.953Z,53.83
2019-04-19T01:15:04.680Z,53.81
2019-04-19T01:16:04.139Z,53.52
2019-04-19T01:17:06.407Z,54.32
2019-04-19T01:18:08.107Z,54.48
2019-04-19T01:18:58.043Z,54.96
2019-04-19T01:19:55.842Z,55.15
2019-04-19T01:20:50.146Z,55.05
2019-04-19T01:21:49.442Z,55.53
2019-04-19T01:22:58.587Z,55.82
2019-04-19T01:23:54.250Z,55.15
2019-04-19T01:24:50.937Z,55.34
2019-04-19T01:25:54.655Z,55.82
2019-04-19T01:26:53.964Z,56.01
2019-04-19T01:27:49.413Z,55.98
2019-04-19T01:28:53.567Z,56.27
2019-04-19T01:29:54.256Z,56.56
2019-04-19T01:30:50.743Z,56.37
2019-04-19T01:31:58.108Z,56.17
2019-04-19T01:32:54.230Z,56.27
2019-04-19T01:33:50.708Z,56.37
2019-04-19T01:34:57.921Z,56.75
2019-04-19T01:35:53.950Z,57.80
2019-04-19T01:36:51.225Z,57.51
2019-04-19T01:37:53.875Z,58.18
2019-04-19T01:38:58.082Z,58.66
2019-04-19T01:40:05.811Z,59.23
2019-04-19T01:41:09.921Z,59.43
2019-04-19T01:42:00.984Z,60.00
2019-04-19T01:43:01.904Z,60.35
2019-04-19T01:44:06.636Z,60.83
2019-04-19T01:45:08.744Z,61.22
2019-04-19T01:46:03.856Z,61.69
2019-04-19T01:47:06.564Z,61.79
2019-04-19T01:48:04.125Z,61.69
2019-04-19T01:49:03.141Z,61.85
2019-04-19T01:50:03.301Z,62.74
2019-04-19T01:51:04.870Z,62.43
2019-04-19T01:52:07.769Z,62.71
2019-04-19T01:53:09.634Z,62.71
2019-04-19T01:54:08.939Z,63.39
2019-04-19T01:55:01.848Z,63.57
2019-04-19T01:55:54.270Z,63.67
2019-04-19T01:56:53.638Z,64.05
2019-04-19T01:57:49.362Z,65.01
2019-04-19T01:58:55.177Z,65.11
2019-04-19T01:59:54.239Z,66.63
2019-04-19T02:00:52.418Z,66.25
2019-04-19T02:01:50.622Z,66.92
2019-04-19T02:02:54.786Z,66.63
2019-04-19T02:03:52.116Z,67.40
2019-04-19T02:04:52.077Z,67.21
2019-04-19T02:05:54.041Z,67.88
2019-04-19T02:06:51.100Z,67.84
2019-04-19T02:07:56.556Z,67.97
2019-04-19T02:08:53.873Z,68.04
2019-04-19T02:10:02.670Z,68.99
2019-04-19T02:10:59.921Z,68.99
2019-04-19T02:11:57.965Z,69.09
2019-04-19T02:13:00.357Z,69.09
2019-04-19T02:13:58.055Z,69.09
2019-04-19T02:14:57.385Z,69.27
2019-04-19T02:15:52.581Z,69.18
2019-04-19T02:16:52.609Z,69.91
2019-04-19T02:17:51.354Z,70.01
2019-04-19T02:18:49.363Z,70.29
2019-04-19T02:19:56.640Z,70.39
2019-04-19T02:20:50.503Z,70.20
2019-04-19T02:21:50.739Z,70.77
2019-04-19T02:22:55.142Z,70.96
2019-04-19T02:23:53.944Z,71.15
2019-04-19T02:24:52.655Z,71.63
2019-04-19T02:25:51.637Z,72.39
2019-04-19T02:26:56.465Z,72.45
2019-04-19T02:27:51.422Z,73.12
2019-04-19T02:28:49.266Z,73.12
2019-04-19T02:29:56.731Z,73.60
2019-04-19T02:31:06.211Z,73.32
2019-04-19T02:32:15.466Z,74.17
2019-04-19T02:33:15.354Z,74.55
2019-04-19T02:34:26.785Z,74.46
2019-04-19T02:35:11.334Z,75.32
2019-04-19T02:36:20.669Z,75.13
2019-04-19T02:37:16.395Z,75.22
2019-04-19T02:38:15.208Z,75.66
2019-04-19T02:41:17.952Z,75.57
2019-04-19T02:42:27.451Z,76.14
2019-04-19T02:43:17.112Z,76.04
2019-04-19T02:44:12.008Z,76.33
2019-04-19T02:45:17.453Z,77.00
2019-04-19T02:47:21.758Z,77.19
2019-04-19T02:48:23.798Z,77.09
2019-04-19T02:49:24.314Z,77.19
2019-04-19T02:52:27.387Z,77.76
2019-04-19T02:53:16.682Z,78.23
2019-04-19T02:54:20.872Z,78.05
2019-04-19T02:56:31.544Z,78.33
2019-04-19T02:57:21.065Z,78.14
2019-04-19T02:58:13.060Z,78.62
2019-04-19T02:59:21.296Z,78.33
2019-04-19T03:01:18.766Z,78.72
2019-04-19T03:02:25.095Z,78.81
2019-04-19T03:03:13.314Z,79.00
2019-04-19T03:04:24.558Z,78.91
2019-04-19T03:05:30.146Z,79.10
2019-04-19T03:06:03.931Z,79.57
2019-04-19T03:06:55.577Z,79.10
2019-04-19T03:07:50.341Z,79.86
2019-04-19T03:08:48.805Z,79.77
2019-04-19T03:09:50.391Z,79.96
2019-04-19T03:11:02.046Z,80.05
2019-04-19T03:12:03.783Z,79.63
2019-04-19T03:13:03.454Z,79.48
2019-04-19T03:14:03.294Z,80.24
2019-04-19T03:15:02.724Z,80.20
2019-04-19T03:16:08.922Z,79.63
2019-04-19T03:17:04.938Z,80.39
2019-04-19T03:18:18.465Z,80.20
2019-04-19T03:19:00.906Z,80.20
2019-04-19T03:20:05.478Z,79.82
2019-04-19T03:21:00.515Z,79.91
2019-04-19T03:22:01.133Z,79.63
2019-04-19T03:22:59.469Z,80.11
2019-04-19T03:24:05.328Z,79.53
2019-04-19T03:25:06.233Z,79.53
2019-04-19T03:25:59.199Z,78.86
2019-04-19T03:27:02.380Z,79.06
2019-04-19T03:27:59.783Z,79.44
2019-04-19T03:28:54.142Z,78.77
2019-04-19T03:29:55.697Z,78.58
2019-04-19T03:31:14.107Z,78.39
2019-04-19T03:32:24.104Z,78.39
2019-04-19T03:33:19.141Z,78.30
2019-04-19T03:34:13.409Z,78.01
2019-04-19T03:35:03.908Z,78.58
2019-04-19T03:36:05.822Z,78.10
2019-04-19T03:37:00.060Z,78.20
2019-04-19T03:38:08.842Z,78.39
2019-04-19T03:39:13.345Z,78.86
2019-04-19T03:40:21.713Z,79.44
2019-04-19T03:41:09.186Z,79.15
2019-04-19T03:42:18.098Z,79.35
2019-04-19T03:43:11.414Z,79.53
2019-04-19T03:44:03.497Z,79.82
2019-04-19T03:45:08.600Z,79.53
2019-04-19T03:46:08.819Z,79.25
2019-04-19T03:47:10.091Z,79.15
2019-04-19T03:48:08.832Z,79.53
2019-04-19T03:49:14.653Z,80.01
2019-04-19T03:50:04.587Z,80.01
2019-04-19T03:51:18.183Z,79.91
2019-04-19T03:52:15.551Z,79.44
2019-04-19T03:54:08.735Z,79.63
2019-04-19T03:56:12.244Z,80.39
2019-04-19T03:57:06.122Z,81.06
2019-04-19T03:57:58.260Z,80.77
2019-04-19T03:58:51.302Z,81.06
2019-04-19T03:59:48.452Z,81.63
2019-04-19T04:00:50.056Z,81.73
2019-04-19T04:01:53.261Z,81.73
2019-04-19T04:02:50.038Z,81.63
2019-04-19T04:03:51.062Z,81.63
2019-04-19T04:04:53.788Z,82.30
2019-04-19T04:05:51.726Z,81.78
2019-04-19T04:06:49.013Z,81.44
2019-04-19T04:07:59.280Z,81.73
2019-04-19T04:08:55.513Z,81.73
2019-04-19T04:09:52.586Z,80.96
2019-04-19T04:10:49.175Z,81.02
2019-04-19T04:11:56.496Z,81.12
2019-04-19T04:12:57.439Z,80.64
2019-04-19T04:14:03.382Z,80.83
2019-04-19T04:15:03.876Z,80.92
2019-04-19T04:16:03.548Z,80.64
2019-04-19T04:16:51.908Z,80.26
2019-04-19T04:17:48.316Z,79.78
2019-04-19T04:18:49.311Z,79.72
2019-04-19T04:19:48.411Z,79.78
2019-04-19T04:20:52.659Z,79.49
2019-04-19T04:21:50.806Z,78.73
2019-04-19T04:22:49.711Z,79.49
2019-04-19T04:24:00.060Z,79.44
2019-04-19T04:24:58.371Z,79.06
2019-04-19T04:25:58.642Z,79.44
2019-04-19T04:26:58.132Z,79.15
2019-04-19T04:27:59.843Z,79.15
2019-04-19T04:29:02.981Z,78.77
2019-04-19T04:30:00.226Z,79.25
2019-04-19T04:30:53.905Z,79.72
2019-04-19T04:32:01.263Z,79.91
2019-04-19T04:33:02.924Z,79.44
2019-04-19T04:33:56.679Z,79.35
2019-04-19T04:35:07.360Z,78.86
2019-04-19T04:36:04.067Z,78.86
2019-04-19T04:37:01.794Z,79.15
2019-04-19T04:37:58.543Z,78.77
2019-04-19T04:38:49.550Z,78.58
2019-04-19T04:39:49.327Z,78.96
2019-04-19T04:40:48.606Z,78.49
2019-04-19T04:41:49.134Z,78.58
2019-04-19T04:43:03.927Z,79.25
2019-04-19T04:44:07.863Z,78.30
2019-04-19T04:45:17.453Z,78.30
2019-04-19T04:46:16.647Z,78.20
2019-04-19T04:47:08.759Z,77.53
2019-04-19T04:48:04.310Z,78.30
2019-04-19T04:49:04.477Z,78.30
2019-04-19T04:50:11.279Z,78.10
2019-04-19T04:51:10.752Z,77.53
2019-04-19T04:52:00.156Z,78.10
2019-04-19T04:52:49.398Z,78.10
2019-04-19T04:53:49.136Z,78.10
2019-04-19T04:54:48.308Z,78.05
2019-04-19T04:55:53.549Z,78.10
2019-04-19T04:56:58.430Z,78.72
2019-04-19T04:57:54.382Z,79.57
2019-04-19T04:58:49.587Z,78.58
2019-04-19T04:59:50.741Z,79.96
2019-04-19T05:00:55.018Z,79.63
2019-04-19T05:01:58.010Z,79.72
2019-04-19T05:03:05.080Z,79.57
2019-04-19T05:03:58.143Z,80.05
2019-04-19T05:05:07.368Z,79.99
2019-04-19T05:06:09.379Z,80.09
2019-04-19T05:07:05.489Z,79.46
2019-04-19T05:08:11.325Z,78.36
2019-04-19T05:09:06.555Z,77.34
2019-04-19T05:10:06.094Z,75.62
2019-04-19T05:11:07.702Z,74.32
2019-04-19T05:12:15.266Z,73.50
2019-04-19T05:13:27.386Z,71.87
2019-04-19T05:14:07.042Z,70.76
2019-04-19T05:14:59.343Z,69.93
2019-04-19T05:16:06.923Z,68.21
2019-04-19T05:17:22.760Z,67.57
2019-04-19T05:18:12.133Z,66.45
2019-04-19T05:19:03.740Z,65.62
2019-04-19T05:20:12.198Z,64.37
2019-04-19T05:21:02.828Z,63.35
2019-04-19T05:22:08.663Z,62.68
2019-04-19T05:23:05.406Z,60.88
2019-04-19T05:24:08.800Z,60.40
2019-04-19T05:25:12.521Z,59.28
2019-04-19T05:26:10.713Z,58.32
2019-04-19T05:27:10.064Z,57.68
2019-04-19T05:28:08.385Z,56.84
2019-04-19T05:29:03.397Z,56.10
2019-04-19T05:29:51.620Z,55.33
2019-04-19T05:30:56.709Z,55.26
2019-04-19T05:31:52.742Z,54.97
2019-04-19T05:32:57.848Z,54.13
2019-04-19T05:34:11.179Z,53.77
2019-04-19T05:35:05.751Z,52.81
2019-04-19T05:36:11.099Z,52.55
2019-04-19T05:37:05.517Z,51.87
2019-04-19T05:38:03.552Z,51.58
2019-04-19T05:39:09.604Z,51.00
2019-04-19T05:41:00.681Z,50.54
2019-04-19T05:42:03.730Z,49.80
2019-04-19T05:43:02.198Z,48.74
2019-04-19T05:44:14.297Z,47.89
2019-04-19T05:45:20.379Z,47.80
2019-04-19T05:46:21.615Z,46.85
2019-04-19T05:47:06.233Z,46.17
2019-04-19T05:47:56.644Z,45.72
2019-04-19T05:48:58.119Z,45.25
2019-04-19T05:50:07.555Z,44.87
2019-04-19T05:51:14.016Z,44.77
2019-04-19T05:52:07.803Z,43.92
2019-04-19T05:53:06.929Z,43.37
2019-04-19T05:53:50.213Z,42.88
2019-04-19T05:54:47.794Z,43.09
2019-04-19T05:55:47.795Z,42.80
2019-04-19T05:56:53.183Z,42.82
2019-04-19T05:58:02.035Z,42.44
2019-04-19T05:58:57.906Z,42.46
2019-04-19T05:59:56.903Z,41.97
2019-04-19T06:01:02.262Z,41.02
2019-04-19T06:02:02.809Z,40.73
2019-04-19T06:03:01.261Z,39.67
2019-04-19T06:04:07.623Z,38.71
2019-04-19T06:05:11.425Z,38.32
2019-04-19T06:06:16.045Z,38.44
2019-04-19T06:07:08.318Z,37.76
2019-04-19T06:07:59.734Z,37.88
2019-04-19T06:08:47.813Z,37.39
2019-04-19T06:09:47.816Z,36.44
2019-04-19T06:10:53.651Z,36.83
2019-04-19T06:11:48.436Z,36.34
2019-04-19T06:12:49.587Z,36.24
2019-04-19T06:13:57.483Z,35.78
2019-04-19T06:15:08.121Z,35.49
2019-04-19T06:16:07.317Z,35.19
2019-04-19T06:17:01.519Z,35.19
2019-04-19T06:18:06.762Z,34.61
2019-04-19T06:19:01.539Z,35.00
2019-04-19T06:20:08.374Z,34.52
2019-04-19T06:21:10.439Z,34.33
2019-04-19T06:22:00.789Z,34.33
2019-04-19T06:23:07.441Z,34.14
2019-04-19T06:24:15.158Z,33.95
2019-04-19T06:25:00.799Z,33.65
2019-04-19T06:26:27.302Z,33.77
2019-04-19T06:27:13.379Z,33.09
2019-04-19T06:28:22.700Z,33.09
2019-04-19T06:29:25.748Z,33.18
2019-04-19T06:30:10.460Z,32.87
2019-04-19T06:31:12.763Z,33.17
2019-04-19T06:32:11.528Z,33.26
2019-04-19T06:33:07.843Z,33.28
2019-04-19T06:34:08.842Z,32.70
2019-04-19T06:35:02.528Z,31.93
2019-04-19T06:35:53.765Z,31.84
2019-04-19T06:36:58.571Z,31.54
2019-04-19T06:37:48.194Z,31.37
2019-04-19T06:38:48.619Z,31.76
2019-04-19T06:39:52.305Z,31.77
2019-04-19T06:40:54.468Z,32.06
2019-04-19T06:41:55.816Z,31.77
2019-04-19T06:42:58.066Z,31.59
2019-04-19T06:43:59.952Z,31.60
2019-04-19T06:45:10.624Z,31.02
2019-04-19T06:46:02.624Z,30.44
2019-04-19T06:47:00.904Z,30.03
2019-04-19T06:47:56.997Z,30.52
2019-04-19T06:48:54.179Z,30.70
2019-04-19T06:49:50.978Z,30.70
2019-04-19T06:50:52.965Z,30.62
2019-04-19T06:51:57.679Z,30.91
2019-04-19T06:52:48.958Z,30.71
2019-04-19T06:53:53.934Z,30.44
2019-04-19T06:54:48.476Z,30.63
2019-04-19T06:55:52.614Z,30.44
2019-04-19T06:56:57.090Z,29.86
2019-04-19T06:57:58.991Z,29.38
2019-04-19T06:58:59.757Z,29.49
2019-04-19T07:00:03.326Z,29.41
2019-04-19T07:01:02.310Z,29.03
2019-04-19T07:01:52.732Z,28.72
2019-04-19T07:02:48.065Z,28.93
2019-04-19T07:03:49.386Z,28.25
2019-04-19T07:04:56.255Z,28.32
2019-04-19T07:06:06.382Z,28.52
2019-04-19T07:07:12.971Z,28.39
2019-04-19T07:08:25.991Z,28.97
2019-04-19T07:09:13.610Z,29.17
2019-04-19T07:10:18.071Z,29.85
2019-04-19T07:11:11.608Z,29.59
2019-04-19T07:12:09.096Z,29.59
2019-04-19T07:13:04.728Z,29.71
2019-04-19T07:13:57.675Z,28.44
2019-04-19T07:15:06.887Z,28.19
2019-04-19T07:16:15.893Z,29.64
2019-04-19T07:17:07.211Z,30.05
2019-04-19T07:18:05.135Z,29.69
2019-04-19T07:19:08.124Z,29.71
2019-04-19T07:20:06.505Z,29.24
2019-04-19T07:21:07.887Z,28.78
2019-04-19T07:22:04.820Z,28.39
2019-04-19T07:23:04.336Z,28.11
2019-04-19T07:24:11.787Z,27.01
2019-04-19T07:25:11.846Z,26.50
2019-04-19T07:26:10.048Z,28.03
2019-04-19T07:27:09.981Z,28.22
2019-04-19T07:27:59.543Z,28.91
2019-04-19T07:28:49.370Z,29.10
2019-04-19T07:29:49.914Z,28.64
2019-04-19T07:30:53.161Z,28.26
2019-04-19T07:31:49.119Z,28.26
2019-04-19T07:32:55.715Z,27.95
2019-04-19T07:33:57.153Z,28.22
2019-04-19T07:35:03.390Z,28.72
2019-04-19T07:36:08.858Z,28.45
2019-04-19T07:37:09.160Z,28.36
2019-04-19T07:38:17.261Z,27.78
2019-04-19T07:39:09.683Z,27.70
2019-04-19T07:40:14.274Z,27.21
2019-04-19T07:41:05.933Z,26.89
2019-04-19T07:42:13.692Z,27.69
2019-04-19T07:43:06.040Z,27.98
2019-04-19T07:43:59.348Z,27.81
2019-04-19T07:44:55.820Z,27.74
2019-04-19T07:46:12.286Z,26.86
2019-04-19T07:47:01.102Z,26.50
2019-04-19T07:47:57.719Z,25.42
2019-04-19T07:48:49.373Z,25.21
2019-04-19T07:50:00.575Z,25.61
2019-04-19T07:50:56.931Z,25.98
2019-04-19T07:51:58.240Z,25.70
2019-04-19T07:52:56.454Z,25.81
2019-04-19T07:53:51.205Z,25.51
2019-04-19T07:54:55.251Z,25.32
2019-04-19T07:56:00.762Z,25.48
2019-04-19T07:57:01.532Z,25.88
2019-04-19T07:58:24.189Z,26.28
2019-04-19T07:59:14.628Z,25.52
2019-04-19T08:01:15.065Z,25.15
2019-04-19T08:04:38.552Z,24.29
2019-04-19T08:05:18.627Z,24.41
2019-04-19T08:13:19.693Z,25.26
2019-04-19T08:15:22.335Z,24.29
2019-04-19T08:16:47.400Z,24.10
2019-04-19T08:28:03.095Z,22.09
2019-04-19T08:28:56.309Z,21.87
2019-04-19T08:29:56.135Z,22.52
2019-04-19T08:30:55.296Z,22.82
2019-04-19T08:31:49.058Z,23.30
2019-04-19T08:32:49.336Z,23.41
2019-04-19T08:33:48.991Z,23.84
2019-04-19T08:34:55.741Z,22.89
2019-04-19T08:35:52.789Z,22.41
2019-04-19T08:36:52.343Z,21.79
2019-04-19T08:37:50.589Z,22.37
2019-04-19T08:39:08.586Z,22.30
2019-04-19T08:40:04.611Z,22.72
2019-04-19T08:41:02.056Z,22.06
2019-04-19T08:42:12.957Z,21.38
2019-04-19T08:43:09.399Z,20.76
2019-04-19T08:44:05.061Z,20.76
2019-04-19T08:44:56.197Z,20.68
2019-04-19T08:45:49.166Z,20.72
2019-04-19T08:46:49.195Z,19.74
2019-04-19T08:48:00.136Z,19.35
2019-04-19T08:48:54.452Z,18.78
2019-04-19T08:49:51.196Z,18.40
2019-04-19T08:50:52.854Z,18.28
2019-04-19T08:51:50.535Z,18.18
2019-04-19T08:52:56.717Z,18.26
2019-04-19T08:54:08.322Z,18.54
2019-04-19T08:55:11.311Z,18.52
2019-04-19T08:56:10.001Z,19.53
2019-04-19T08:56:57.386Z,20.13
2019-04-19T08:57:57.643Z,19.06
2019-04-19T08:59:09.604Z,18.78
2019-04-19T09:00:12.505Z,18.19
2019-04-19T09:01:13.863Z,18.22
2019-04-19T09:02:10.818Z,17.43
2019-04-19T09:03:03.892Z,17.33
2019-04-19T09:04:09.154Z,17.33
2019-04-19T09:05:08.997Z,17.25
2019-04-19T09:06:48.334Z,16.83
2019-04-19T09:08:12.257Z,17.04
2019-04-19T09:09:02.352Z,16.45
2019-04-19T09:10:26.303Z,16.36
2019-04-19T09:11:05.556Z,16.07
2019-04-19T09:12:08.241Z,16.17
2019-04-19T09:13:19.678Z,16.09
2019-04-19T09:14:11.098Z,15.59
2019-04-19T09:15:06.481Z,16.00
2019-04-19T09:16:07.641Z,15.49
2019-04-19T09:17:12.902Z,15.64
2019-04-19T09:18:25.051Z,15.92
2019-04-19T09:19:18.436Z,17.11
2019-04-19T09:21:05.194Z,17.34
2019-04-19T09:22:07.903Z,16.86
2019-04-19T09:23:04.855Z,16.40
2019-04-19T09:23:57.399Z,17.40
2019-04-19T09:24:57.180Z,17.47
2019-04-19T09:26:04.597Z,18.37
2019-04-19T09:27:06.306Z,18.30
2019-04-19T09:28:15.063Z,18.19
2019-04-19T09:29:18.008Z,17.79
2019-04-19T09:30:11.570Z,17.56
2019-04-19T09:31:04.359Z,18.26
2019-04-19T09:32:00.258Z,17.79
2019-04-19T09:32:50.440Z,17.49
2019-04-19T09:34:00.428Z,17.10
2019-04-19T09:34:59.749Z,17.56
2019-04-19T09:35:58.891Z,19.09
2019-04-19T09:37:02.212Z,19.81
2019-04-19T09:38:02.605Z,19.64
2019-04-19T09:39:03.005Z,19.05
2019-04-19T09:39:59.791Z,18.90
2019-04-19T09:40:56.582Z,19.42
2019-04-19T09:41:57.590Z,19.85
2019-04-19T09:42:57.511Z,18.90
2019-04-19T09:44:01.693Z,17.49
2019-04-19T09:44:56.315Z,17.76
2019-04-19T09:45:51.128Z,18.84
2019-04-19T09:46:50.826Z,18.65
2019-04-19T09:47:50.374Z,18.91
2019-04-19T09:49:05.088Z,19.01
2019-04-19T09:50:04.048Z,18.79
2019-04-19T09:52:03.265Z,19.47
2019-04-19T09:53:20.709Z,18.06
2019-04-19T09:54:13.440Z,16.95
2019-04-19T09:55:16.347Z,16.66
2019-04-19T09:56:11.917Z,16.83
2019-04-19T09:57:05.970Z,16.83
2019-04-19T09:58:12.788Z,16.72
2019-04-19T09:59:02.740Z,17.00
2019-04-19T09:59:58.069Z,17.30
2019-04-19T10:00:53.736Z,17.36
2019-04-19T10:01:55.583Z,18.92
2019-04-19T10:02:56.439Z,19.20
2019-04-19T10:03:55.777Z,19.60
2019-04-19T10:04:50.671Z,19.51
2019-04-19T10:05:51.003Z,19.68
2019-04-19T10:06:51.117Z,19.59
2019-04-19T10:07:50.718Z,19.89
2019-04-19T10:08:51.860Z,19.79
2019-04-19T10:09:55.436Z,19.59
2019-04-19T10:10:51.680Z,19.51
2019-04-19T10:11:50.938Z,18.96
2019-04-19T10:12:51.800Z,18.18
2019-04-19T10:13:50.744Z,18.77
2019-04-19T10:14:51.469Z,18.38
2019-04-19T10:15:50.773Z,18.08
2019-04-19T10:16:50.781Z,18.29
2019-04-19T10:17:50.802Z,18.09
2019-04-19T10:18:55.957Z,18.29
2019-04-19T10:19:50.946Z,17.97
2019-04-19T10:20:51.111Z,18.29
2019-04-19T10:21:51.959Z,17.99
2019-04-19T10:22:50.975Z,18.49
2019-04-19T10:23:51.955Z,18.77
2019-04-19T10:24:53.679Z,18.37
2019-04-19T10:25:55.170Z,18.66
2019-04-19T10:26:50.935Z,18.37
2019-04-19T10:27:51.911Z,17.71
2019-04-19T10:28:50.961Z,17.21
2019-04-19T10:29:51.336Z,16.90
2019-04-19T10:30:51.002Z,17.10
2019-04-19T10:31:53.432Z,17.67
2019-04-19T10:32:53.278Z,17.73
2019-04-19T10:33:55.428Z,18.81
2019-04-19T10:34:52.395Z,19.49
2019-04-19T10:35:51.766Z,19.72
2019-04-19T10:36:52.712Z,19.94
2019-04-19T10:37:51.455Z,17.88
2019-04-19T10:38:53.430Z,18.00
2019-04-19T10:39:51.930Z,17.03
2019-04-19T10:40:51.457Z,17.25
2019-04-19T10:41:52.190Z,16.28
2019-04-19T10:42:51.436Z,15.50
2019-04-19T10:44:01.859Z,15.51
2019-04-19T10:44:52.067Z,15.11
2019-04-19T10:45:52.124Z,15.30
2019-04-19T10:46:51.229Z,15.70
2019-04-19T10:47:51.818Z,15.61
2019-04-19T10:49:01.364Z,15.72
2019-04-19T10:49:57.712Z,15.30
2019-04-19T10:50:53.535Z,15.39
2019-04-19T10:51:52.259Z,15.19
2019-04-19T10:52:52.496Z,15.97
2019-04-19T10:53:52.575Z,15.66
2019-04-19T10:54:51.668Z,16.74
2019-04-19T10:55:52.012Z,16.61
2019-04-19T10:56:52.367Z,17.14
2019-04-19T10:57:51.436Z,16.93
2019-04-19T10:58:52.466Z,16.52
2019-04-19T10:59:52.365Z,17.30
2019-04-19T11:00:51.489Z,17.49
2019-04-19T11:01:52.165Z,17.19
2019-04-19T11:02:52.442Z,17.77
2019-04-19T11:03:52.792Z,18.08
2019-04-19T11:04:51.516Z,17.89
2019-04-19T11:05:52.610Z,18.10
2019-04-19T11:06:51.545Z,18.21
2019-04-19T11:07:51.674Z,16.73
2019-04-19T11:08:51.578Z,17.52
2019-04-19T11:09:51.599Z,17.38
2019-04-19T11:10:51.748Z,17.18
2019-04-19T11:11:51.910Z,17.08
2019-04-19T11:12:52.476Z,17.17
2019-04-19T11:13:52.020Z,17.45
2019-04-19T11:14:52.378Z,17.84
2019-04-19T11:15:52.146Z,18.68
2019-04-19T11:16:51.699Z,19.56
2019-04-19T11:17:51.848Z,19.82
2019-04-19T11:18:51.723Z,19.74
2019-04-19T11:20:04.677Z,19.54
2019-04-19T11:20:54.006Z,20.20
2019-04-19T11:21:51.893Z,21.00
2019-04-19T11:22:51.789Z,21.10
2019-04-19T11:23:51.802Z,21.78
2019-04-19T11:24:52.068Z,20.89
2019-04-19T11:25:52.268Z,21.54
2019-04-19T11:26:52.877Z,22.12
2019-04-19T11:27:53.391Z,22.41
2019-04-19T11:28:51.859Z,22.88
2019-04-19T11:29:52.286Z,23.35
2019-04-19T11:30:52.982Z,23.43
2019-04-19T11:31:52.077Z,23.71
2019-04-19T11:32:52.716Z,24.97
2019-04-19T11:33:53.087Z,25.07
2019-04-19T11:34:51.924Z,25.26
2019-04-19T11:35:53.090Z,25.65
2019-04-19T11:36:51.939Z,25.84
2019-04-19T11:37:53.037Z,25.15
2019-04-19T11:38:51.948Z,25.04
2019-04-19T11:39:53.020Z,25.34
2019-04-19T11:40:53.193Z,25.35
2019-04-19T11:41:51.975Z,25.05
2019-04-19T11:42:53.093Z,24.76
2019-04-19T11:43:51.980Z,24.95
2019-04-19T11:44:52.105Z,25.14
2019-04-19T11:45:51.996Z,24.95
2019-04-19T11:46:52.124Z,25.04
2019-04-19T11:47:53.290Z,25.63
2019-04-19T11:48:52.144Z,25.24
2019-04-19T11:49:52.027Z,25.05
2019-04-19T11:50:52.022Z,24.07
2019-04-19T11:51:53.166Z,24.18
2019-04-19T11:52:52.027Z,24.48
2019-04-19T11:53:52.473Z,25.45
2019-04-19T11:54:52.549Z,25.45
2019-04-19T11:55:52.045Z,25.85
2019-04-19T11:56:58.254Z,26.14
2019-04-19T11:57:52.490Z,25.36
2019-04-19T11:58:52.903Z,25.26
2019-04-19T11:59:54.580Z,25.74
2019-04-19T12:00:52.070Z,24.76
2019-04-19T12:01:52.218Z,24.27
2019-04-19T12:02:52.073Z,24.66
2019-04-19T12:03:52.175Z,25.25
2019-04-19T12:04:52.465Z,25.15
2019-04-19T12:05:52.085Z,25.05
2019-04-19T12:06:52.363Z,25.04
2019-04-19T12:07:52.602Z,25.43
2019-04-19T12:08:52.097Z,25.34
2019-04-19T12:09:52.375Z,25.82
2019-04-19T12:10:52.466Z,25.82
2019-04-19T12:11:52.101Z,25.24
2019-04-19T12:12:53.080Z,25.34
2019-04-19T12:13:52.354Z,25.63
2019-04-19T12:14:53.309Z,25.73
2019-04-19T12:15:52.774Z,25.24
2019-04-19T12:16:53.105Z,25.14
2019-04-19T12:17:52.420Z,25.43
2019-04-19T12:18:52.131Z,25.23
2019-04-19T12:19:57.150Z,25.51
2019-04-19T12:20:53.288Z,26.29
2019-04-19T12:21:53.872Z,26.49
2019-04-19T12:22:52.147Z,26.38
2019-04-19T12:23:52.968Z,26.28
2019-04-19T12:24:54.913Z,26.76
2019-04-19T12:25:53.401Z,26.78
2019-04-19T12:26:53.555Z,26.87
2019-04-19T12:27:52.155Z,26.78
2019-04-19T12:28:53.421Z,26.70
2019-04-19T12:29:54.014Z,26.50
2019-04-19T12:30:55.552Z,26.60
2019-04-19T12:31:54.295Z,25.82
2019-04-19T12:32:53.094Z,25.63
2019-04-19T12:33:53.319Z,25.04
2019-04-19T12:34:52.966Z,26.03
2019-04-19T12:35:53.051Z,25.25
2019-04-19T12:36:53.095Z,25.35
2019-04-19T12:37:53.284Z,25.05
2019-04-19T12:38:52.187Z,25.36
2019-04-19T12:39:52.862Z,25.74
2019-04-19T12:40:52.195Z,25.54
2019-04-19T12:41:52.312Z,26.22
2019-04-19T12:42:52.196Z,26.72
2019-04-19T12:43:52.199Z,26.32
2019-04-19T12:44:52.205Z,25.24
2019-04-19T12:45:53.798Z,25.32
2019-04-19T12:46:52.954Z,25.70
2019-04-19T12:47:53.176Z,25.70
2019-04-19T12:48:52.209Z,25.31
2019-04-19T12:49:59.323Z,25.89
2019-04-19T12:50:53.526Z,25.99
2019-04-19T12:51:52.344Z,26.09
2019-04-19T12:52:52.225Z,26.78
2019-04-19T12:53:52.565Z,26.20
2019-04-19T12:54:52.226Z,25.32
2019-04-19T12:55:52.226Z,25.21
2019-04-19T12:56:52.233Z,25.31
2019-04-19T12:57:52.244Z,25.21
2019-04-19T12:58:53.705Z,25.62
2019-04-19T12:59:52.245Z,26.10
2019-04-19T13:00:52.311Z,25.81
2019-04-19T13:01:53.572Z,25.23
2019-04-19T13:02:52.249Z,25.71
2019-04-19T13:03:52.539Z,26.49
2019-04-19T13:04:52.252Z,26.00
2019-04-19T13:05:53.317Z,25.81
2019-04-19T13:06:52.531Z,26.10
2019-04-19T13:07:53.405Z,25.79
2019-04-19T13:08:52.924Z,25.21
2019-04-19T13:09:53.046Z,25.32
2019-04-19T13:10:53.036Z,25.32
2019-04-19T13:11:52.562Z,25.23
2019-04-19T13:12:52.272Z,25.12
2019-04-19T13:13:52.274Z,25.60
2019-04-19T13:14:53.435Z,25.21
2019-04-19T13:15:52.418Z,24.83
2019-04-19T13:16:52.556Z,25.21
2019-04-19T13:17:52.282Z,25.41
2019-04-19T13:18:52.282Z,24.92
2019-04-19T13:20:06.437Z,25.03
2019-04-19T13:20:52.354Z,26.10
2019-04-19T13:21:52.388Z,26.49
2019-04-19T13:22:52.589Z,26.29
2019-04-19T13:23:52.727Z,26.89
2019-04-19T13:24:52.336Z,26.11
2019-04-19T13:25:53.340Z,25.53
2019-04-19T13:26:53.252Z,25.34
2019-04-19T13:27:55.917Z,24.85